createdAt,value
2018-11-10T00:00:04.664Z,7.33
2018-11-10T00:02:38.381Z,7.17
2018-11-10T00:05:11.809Z,7.25
2018-11-10T00:07:45.614Z,6.85
2018-11-10T00:10:20.509Z,6.80
2018-11-10T00:12:54.057Z,7.15
2018-11-10T00:15:27.732Z,7.03
2018-11-10T00:18:01.626Z,6.42
2018-11-10T00:20:35.049Z,6.87
2018-11-10T00:23:08.802Z,6.87
2018-11-10T00:25:42.725Z,7.33
2018-11-10T00:28:16.559Z,6.83
2018-11-10T00:30:50.289Z,7.53
2018-11-10T00:33:24.332Z,6.80
2018-11-10T00:35:57.787Z,6.70
2018-11-10T00:38:32.314Z,6.85
2018-11-10T00:41:06.473Z,7.03
2018-11-10T00:43:40.028Z,6.70
2018-11-10T00:46:13.591Z,6.67
2018-11-10T00:48:47.726Z,7.00
2018-11-10T00:51:21.365Z,7.30
2018-11-10T00:53:54.714Z,6.70
2018-11-10T00:56:28.299Z,7.40
2018-11-10T00:59:01.817Z,6.85
2018-11-10T01:01:35.373Z,7.30
2018-11-10T01:04:09.507Z,7.42
2018-11-10T01:06:43.276Z,7.08
2018-11-10T01:09:16.766Z,7.17
2018-11-10T01:11:50.764Z,6.35
2018-11-10T01:14:24.370Z,7.15
2018-11-10T01:16:58.032Z,7.00
2018-11-10T01:19:31.622Z,7.30
2018-11-10T01:22:05.292Z,7.30
2018-11-10T01:24:38.781Z,7.12
2018-11-10T01:27:12.587Z,7.00
2018-11-10T01:29:46.277Z,7.00
2018-11-10T01:32:21.042Z,7.45
2018-11-10T01:34:55.277Z,6.65
2018-11-10T01:37:28.745Z,6.20
2018-11-10T01:40:02.484Z,6.90
2018-11-10T01:42:36.044Z,6.80
2018-11-10T01:45:13.515Z,6.55
2018-11-10T01:47:47.368Z,6.90
2018-11-10T01:50:20.790Z,6.37
2018-11-10T01:52:53.638Z,6.80
2018-11-10T01:55:27.669Z,6.80
2018-11-10T01:58:01.276Z,7.00
2018-11-10T02:00:34.766Z,6.65
2018-11-10T02:03:08.479Z,7.10
2018-11-10T02:05:42.051Z,6.80
2018-11-10T02:08:15.561Z,6.65
2018-11-10T02:10:49.254Z,6.87
2018-11-10T02:13:22.736Z,6.87
2018-11-10T02:15:56.352Z,6.55
2018-11-10T02:18:30.768Z,7.15
2018-11-10T02:21:03.959Z,6.60
2018-11-10T02:23:36.592Z,6.90
2018-11-10T02:26:10.344Z,6.90
2018-11-10T02:28:43.834Z,6.78
2018-11-10T02:31:17.482Z,7.03
2018-11-10T02:33:51.381Z,6.85
2018-11-10T02:36:25.281Z,6.60
2018-11-10T02:38:58.775Z,7.05
2018-11-10T02:41:32.425Z,6.60
2018-11-10T02:44:05.811Z,6.87
2018-11-10T02:46:38.525Z,6.55
2018-11-10T02:49:11.356Z,6.90
2018-11-10T02:51:45.150Z,6.83
2018-11-10T02:54:18.633Z,7.03
2018-11-10T02:56:52.277Z,7.33
2018-11-10T02:59:26.051Z,6.85
2018-11-10T03:01:59.769Z,6.67
2018-11-10T03:04:33.508Z,6.83
2018-11-10T03:07:07.047Z,6.40
2018-11-10T03:09:40.593Z,7.20
2018-11-10T03:12:14.272Z,6.78
2018-11-10T03:14:47.614Z,6.67
2018-11-10T03:17:21.341Z,7.37
2018-11-10T03:19:54.758Z,6.87
2018-11-10T03:22:27.775Z,6.92
2018-11-10T03:25:00.424Z,6.67
2018-11-10T03:27:34.044Z,6.97
2018-11-10T03:30:07.694Z,7.22
2018-11-10T03:32:41.540Z,6.92
2018-11-10T03:35:15.278Z,6.25
2018-11-10T03:37:48.741Z,6.80
2018-11-10T03:40:23.351Z,6.70
2018-11-10T03:42:56.786Z,6.50
2018-11-10T03:45:29.957Z,6.72
2018-11-10T03:48:02.566Z,7.27
2018-11-10T03:50:36.608Z,7.10
2018-11-10T03:53:09.617Z,6.60
2018-11-10T03:55:43.275Z,6.50
2018-11-10T03:58:17.208Z,6.70
2018-11-10T04:00:51.284Z,6.50
2018-11-10T04:03:25.004Z,6.58
2018-11-10T04:05:58.514Z,7.07
2018-11-10T04:08:32.269Z,6.85
2018-11-10T04:11:05.736Z,6.47
2018-11-10T04:13:39.351Z,6.40
2018-11-10T04:16:13.267Z,6.50
2018-11-10T04:18:46.789Z,6.83
2018-11-10T04:21:20.522Z,6.58
2018-11-10T04:23:54.584Z,6.75
2018-11-10T04:26:28.050Z,6.42
2018-11-10T04:29:02.262Z,6.62
2018-11-10T04:31:35.712Z,6.87
2018-11-10T04:34:09.556Z,6.33
2018-11-10T04:36:43.277Z,6.70
2018-11-10T04:39:16.762Z,6.25
2018-11-10T04:41:50.373Z,6.37
2018-11-10T04:44:24.276Z,6.70
2018-11-10T04:46:57.746Z,6.40
2018-11-10T04:49:31.640Z,6.60
2018-11-10T04:52:05.286Z,6.17
2018-11-10T04:54:38.818Z,6.70
2018-11-10T04:57:13.280Z,6.47
2018-11-10T04:59:46.749Z,7.25
2018-11-10T05:02:20.373Z,6.62
2018-11-10T05:04:53.806Z,6.58
2018-11-10T05:07:27.588Z,7.03
2018-11-10T05:10:01.287Z,6.25
2018-11-10T05:12:34.766Z,7.00
2018-11-10T05:15:09.661Z,6.85
2018-11-10T05:17:43.513Z,6.53
2018-11-10T05:20:17.027Z,6.78
2018-11-10T05:22:51.270Z,6.75
2018-11-10T05:25:24.801Z,6.85
2018-11-10T05:27:59.295Z,6.40
2018-11-10T05:30:32.805Z,6.33
2018-11-10T05:33:06.709Z,7.05
2018-11-10T05:35:40.366Z,6.58
2018-11-10T05:38:13.783Z,6.83
2018-11-10T05:40:47.345Z,6.62
2018-11-10T05:43:21.551Z,6.87
2018-11-10T05:45:55.559Z,6.53
2018-11-10T05:48:29.280Z,6.33
2018-11-10T05:51:02.759Z,6.62
2018-11-10T05:53:36.381Z,6.80
2018-11-10T05:56:11.364Z,6.92
2018-11-10T05:58:44.964Z,6.37
2018-11-10T06:01:18.617Z,6.40
2018-11-10T06:03:52.369Z,6.60
2018-11-10T06:06:26.055Z,6.75
2018-11-10T06:08:59.614Z,6.42
2018-11-10T06:11:33.285Z,6.45
2018-11-10T06:14:06.970Z,6.22
2018-11-10T06:16:40.794Z,6.43
2018-11-10T06:19:15.058Z,5.67
2018-11-10T06:21:49.533Z,6.05
2018-11-10T06:24:23.286Z,6.47
2018-11-10T06:26:57.306Z,6.47
2018-11-10T06:29:30.784Z,6.05
2018-11-10T06:32:04.483Z,6.00
2018-11-10T06:34:38.044Z,6.47
2018-11-10T06:37:11.770Z,6.20
2018-11-10T06:39:45.336Z,6.42
2018-11-10T06:42:19.055Z,6.53
2018-11-10T06:44:52.747Z,5.83
2018-11-10T06:47:26.648Z,6.28
2018-11-10T06:50:00.056Z,6.17
2018-11-10T06:52:33.777Z,6.00
2018-11-10T06:55:07.144Z,6.05
2018-11-10T06:57:39.984Z,6.28
2018-11-10T07:00:17.477Z,6.10
2018-11-10T07:02:50.764Z,5.58
2018-11-10T07:05:24.835Z,6.35
2018-11-10T07:07:57.597Z,5.60
2018-11-10T07:10:31.283Z,5.78
2018-11-10T07:13:04.761Z,5.83
2018-11-10T07:15:38.483Z,5.50
2018-11-10T07:18:12.331Z,5.90
2018-11-10T07:20:45.789Z,5.92
2018-11-10T07:23:19.500Z,5.65
2018-11-10T07:25:53.303Z,5.87
2018-11-10T07:28:26.749Z,5.70
2018-11-10T07:31:00.380Z,6.03
2018-11-10T07:33:34.014Z,6.20
2018-11-10T07:36:08.289Z,5.50
2018-11-10T07:38:41.790Z,5.95
2018-11-10T07:41:15.789Z,5.80
2018-11-10T07:43:49.615Z,5.50
2018-11-10T07:46:23.282Z,5.67
2018-11-10T07:48:56.797Z,5.37
2018-11-10T07:51:30.766Z,5.33
2018-11-10T07:54:04.505Z,5.50
2018-11-10T07:56:38.822Z,5.97
2018-11-10T07:59:11.592Z,5.70
2018-11-10T08:01:44.566Z,5.55
2018-11-10T08:04:18.622Z,5.95
2018-11-10T08:06:52.802Z,6.37
2018-11-10T08:09:27.018Z,6.50
2018-11-10T08:12:00.651Z,6.93
2018-11-10T08:14:34.784Z,6.65
2018-11-10T08:17:09.286Z,6.78
2018-11-10T08:19:42.823Z,6.85
2018-11-10T08:22:16.525Z,6.78
2018-11-10T08:24:50.063Z,6.60
2018-11-10T08:27:24.660Z,7.00
2018-11-10T08:29:58.463Z,7.37
2018-11-10T08:32:31.886Z,6.85
2018-11-10T08:35:05.575Z,7.43
2018-11-10T08:37:39.677Z,7.65
2018-11-10T08:40:15.779Z,7.58
2018-11-10T08:42:49.691Z,7.70
2018-11-10T08:45:23.570Z,7.20
2018-11-10T08:47:57.501Z,7.30
2018-11-10T08:50:31.090Z,7.17
2018-11-10T08:53:04.601Z,6.97
2018-11-10T08:55:38.366Z,7.15
2018-11-10T08:58:12.034Z,7.30
2018-11-10T09:00:45.584Z,7.30
2018-11-10T09:03:19.285Z,7.20
2018-11-10T09:05:53.272Z,6.97
2018-11-10T09:08:26.786Z,6.45
2018-11-10T09:11:00.596Z,6.53
2018-11-10T09:13:48.801Z,6.67
2018-11-10T09:16:22.487Z,7.00
2018-11-10T09:18:56.053Z,6.08
2018-11-10T09:21:29.873Z,6.70
2018-11-10T09:24:03.500Z,6.90
2018-11-10T09:26:37.049Z,6.97
2018-11-10T09:29:11.335Z,7.08
2018-11-10T09:31:44.844Z,7.37
2018-11-10T09:34:18.567Z,7.30
2018-11-10T09:36:52.428Z,7.78
2018-11-10T09:39:28.774Z,6.90
2018-11-10T09:42:01.538Z,7.10
2018-11-10T09:44:34.306Z,6.72
2018-11-10T09:47:08.714Z,6.70
2018-11-10T09:49:42.484Z,7.00
2018-11-10T09:52:14.477Z,6.70
2018-11-10T09:54:48.542Z,7.05
2018-11-10T09:57:22.073Z,6.87
2018-11-10T09:59:56.456Z,7.05
2018-11-10T10:02:30.159Z,6.33
2018-11-10T10:07:38.280Z,6.97
2018-11-10T10:10:14.788Z,6.17
2018-11-10T10:12:47.802Z,6.35
2018-11-10T10:15:20.965Z,7.05
2018-11-10T10:17:54.585Z,6.80
2018-11-10T10:20:28.287Z,6.45
2018-11-10T10:23:01.821Z,6.28
2018-11-10T10:25:35.657Z,6.30
2018-11-10T10:28:09.388Z,6.65
2018-11-10T10:30:42.800Z,6.60
2018-11-10T10:33:16.500Z,6.58
2018-11-10T10:35:50.784Z,6.33
2018-11-10T10:38:24.582Z,6.50
2018-11-10T10:40:58.064Z,6.12
2018-11-10T10:43:31.759Z,6.95
2018-11-10T10:46:05.490Z,6.55
2018-11-10T10:48:39.341Z,6.03
2018-11-10T10:51:12.803Z,6.80
2018-11-10T10:53:46.556Z,5.85
2018-11-10T10:56:20.318Z,6.40
2018-11-10T10:58:53.792Z,6.10
2018-11-10T11:01:43.573Z,6.50
2018-11-10T11:04:34.448Z,6.72
2018-11-10T11:07:08.312Z,6.03
2018-11-10T11:09:41.850Z,6.30
2018-11-10T11:12:15.870Z,5.35
2018-11-10T11:17:20.131Z,6.00
2018-11-10T11:19:53.783Z,5.70
2018-11-10T11:22:27.594Z,6.35
2018-11-10T11:25:01.544Z,5.78
2018-11-10T11:27:35.357Z,5.72
2018-11-10T11:30:09.977Z,6.15
2018-11-10T11:32:43.621Z,5.70
2018-11-10T11:35:17.362Z,5.92
2018-11-10T11:37:50.874Z,5.62
2018-11-10T11:42:55.241Z,5.70
2018-11-10T11:45:28.785Z,5.53
2018-11-10T11:48:02.898Z,6.50
2018-11-10T11:50:36.790Z,5.90
2018-11-10T11:53:11.355Z,5.70
2018-11-10T11:55:45.275Z,5.75
2018-11-10T11:58:19.805Z,6.03
2018-11-10T12:00:53.599Z,5.53
2018-11-10T12:03:27.269Z,6.00
2018-11-10T12:06:01.619Z,5.72
2018-11-10T12:08:35.271Z,5.58
2018-11-10T12:11:09.027Z,5.83
2018-11-10T12:13:43.272Z,5.45
2018-11-10T12:16:27.196Z,5.45
2018-11-10T12:18:50.569Z,5.60
2018-11-10T12:21:24.054Z,5.85
2018-11-10T12:23:57.720Z,5.42
2018-11-10T12:26:31.565Z,5.42
2018-11-10T12:29:05.581Z,5.58
2018-11-10T12:31:39.297Z,5.37
2018-11-10T12:34:13.286Z,6.00
2018-11-10T12:36:46.725Z,5.28
2018-11-10T12:39:20.815Z,5.60
2018-11-10T12:41:54.558Z,5.75
2018-11-10T12:44:28.280Z,5.62
2018-11-10T12:47:10.632Z,5.72
2018-11-10T12:49:44.280Z,5.60
2018-11-10T12:52:18.302Z,5.70
2018-11-10T12:54:51.892Z,5.78
2018-11-10T12:59:58.059Z,5.92
2018-11-10T13:02:31.562Z,5.72
2018-11-10T13:05:05.544Z,5.75
2018-11-10T13:07:39.332Z,5.67
2018-11-10T13:10:13.348Z,5.62
2018-11-10T13:12:47.055Z,5.28
2018-11-10T13:15:20.617Z,5.70
2018-11-10T13:17:55.276Z,5.90
2018-11-10T13:20:28.778Z,5.37
2018-11-10T13:23:01.582Z,5.70
2018-11-10T13:25:35.524Z,5.45
2018-11-10T13:28:09.312Z,5.95
2018-11-10T13:30:43.347Z,5.70
2018-11-10T13:33:16.776Z,5.80
2018-11-10T13:35:50.785Z,5.83
2018-11-10T13:38:25.381Z,6.00
2018-11-10T13:40:59.023Z,6.00
2018-11-10T13:43:32.643Z,5.87
2018-11-10T13:46:06.276Z,5.37
2018-11-10T13:48:39.805Z,5.50
2018-11-10T13:51:13.765Z,5.70
2018-11-10T13:53:47.281Z,6.20
2018-11-10T13:56:20.730Z,5.22
2018-11-10T13:58:54.347Z,5.28
2018-11-10T14:01:27.772Z,5.28
2018-11-10T14:04:01.616Z,5.40
2018-11-10T14:06:35.287Z,5.12
2018-11-10T14:09:12.285Z,5.62
2018-11-10T14:11:45.811Z,5.90
2018-11-10T14:14:19.499Z,5.08
2018-11-10T14:16:53.594Z,4.97
2018-11-10T14:19:27.314Z,5.17
2018-11-10T14:22:01.282Z,5.45
2018-11-10T14:24:35.681Z,5.70
2018-11-10T14:27:09.487Z,5.15
2018-11-10T14:29:42.822Z,5.15
2018-11-10T14:32:16.585Z,5.40
2018-11-10T14:34:50.275Z,4.87
2018-11-10T14:37:23.786Z,5.12
2018-11-10T14:39:57.544Z,5.20
2018-11-10T14:42:31.570Z,4.85
2018-11-10T14:45:05.363Z,5.45
2018-11-10T14:47:38.788Z,5.62
2018-11-10T14:50:13.776Z,5.45
2018-11-10T14:52:47.560Z,5.33
2018-11-10T14:55:20.798Z,6.12
2018-11-10T14:57:54.412Z,4.97
2018-11-10T15:00:29.511Z,5.40
2018-11-10T15:03:03.023Z,5.60
2018-11-10T15:05:36.683Z,5.60
2018-11-10T15:08:10.587Z,5.22
2018-11-10T15:10:44.550Z,6.20
2018-11-10T15:13:18.282Z,5.62
2018-11-10T15:15:52.311Z,5.87
2018-11-10T15:18:25.791Z,5.50
2018-11-10T15:21:00.022Z,5.42
2018-11-10T15:23:33.603Z,5.62
2018-11-10T15:26:07.376Z,5.58
2018-11-10T15:28:41.095Z,5.75
2018-11-10T15:31:15.036Z,5.22
2018-11-10T15:33:49.280Z,5.20
2018-11-10T15:36:22.810Z,5.53
2018-11-10T15:38:56.776Z,5.42
2018-11-10T15:41:33.644Z,5.47
2018-11-10T15:44:10.732Z,5.80
2018-11-10T15:46:44.204Z,5.85
2018-11-10T15:49:17.780Z,5.42
2018-11-10T15:51:50.541Z,5.58
2018-11-10T15:54:24.942Z,5.78
2018-11-10T15:56:58.538Z,5.58
2018-11-10T15:59:31.777Z,5.65
2018-11-10T16:02:05.493Z,5.90
2018-11-10T16:04:39.273Z,5.30
2018-11-10T16:07:12.719Z,5.20
2018-11-10T16:09:46.512Z,5.50
2018-11-10T16:12:20.570Z,5.17
2018-11-10T16:14:55.598Z,5.58
2018-11-10T16:17:28.975Z,5.80
2018-11-10T16:20:02.545Z,5.08
2018-11-10T16:22:36.359Z,5.47
2018-11-10T16:25:11.709Z,5.45
2018-11-10T16:27:45.639Z,5.42
2018-11-10T16:30:20.857Z,5.33
2018-11-10T16:32:54.510Z,5.20
2018-11-10T16:35:28.274Z,4.97
2018-11-10T16:38:01.792Z,4.90
2018-11-10T16:40:35.604Z,5.40
2018-11-10T16:43:09.316Z,4.97
2018-11-10T16:45:43.023Z,5.20
2018-11-10T16:48:17.289Z,6.10
2018-11-10T16:50:50.776Z,5.72
2018-11-10T16:53:25.077Z,6.12
2018-11-10T16:55:58.551Z,6.63
2018-11-10T16:58:32.472Z,6.92
2018-11-10T17:01:06.307Z,8.33
2018-11-10T17:03:39.699Z,9.98
2018-11-10T17:06:13.372Z,14.55
2018-11-10T17:08:47.108Z,15.23
2018-11-10T17:11:20.597Z,15.30
2018-11-10T17:13:54.341Z,15.72
2018-11-10T17:16:28.280Z,14.78
2018-11-10T17:19:01.779Z,14.80
2018-11-10T17:21:35.687Z,14.75
2018-11-10T17:24:09.461Z,13.85
2018-11-10T17:26:43.979Z,14.73
2018-11-10T17:29:17.539Z,13.63
2018-11-10T17:31:51.278Z,13.50
2018-11-10T17:34:24.745Z,13.93
2018-11-10T17:36:58.367Z,13.85
2018-11-10T17:39:32.352Z,13.60
2018-11-10T17:42:05.881Z,14.15
2018-11-10T17:44:39.484Z,13.65
2018-11-10T17:47:13.057Z,13.53
2018-11-10T17:49:46.659Z,14.45
2018-11-10T17:52:20.762Z,13.10
2018-11-10T17:54:54.336Z,13.75
2018-11-10T17:57:27.801Z,12.63
2018-11-10T18:00:01.992Z,12.82
2018-11-10T18:02:35.622Z,12.90
2018-11-10T18:05:10.840Z,12.28
2018-11-10T18:07:45.278Z,12.27
2018-11-10T18:10:20.053Z,11.83
2018-11-10T18:12:54.008Z,12.28
2018-11-10T18:15:27.585Z,12.33
2018-11-10T18:18:01.310Z,11.38
2018-11-10T18:20:35.435Z,11.20
2018-11-10T18:23:09.376Z,11.33
2018-11-10T18:25:43.276Z,11.33
2018-11-10T18:28:16.728Z,11.70
2018-11-10T18:30:49.425Z,10.98
2018-11-10T18:33:22.764Z,11.03
2018-11-10T18:35:56.646Z,10.82
2018-11-10T18:38:30.276Z,11.38
2018-11-10T18:41:03.749Z,10.90
2018-11-10T18:43:37.792Z,10.75
2018-11-10T18:46:11.581Z,10.82
2018-11-10T18:48:52.734Z,10.68
2018-11-10T18:51:26.373Z,11.18
2018-11-10T18:53:59.990Z,10.70
2018-11-10T18:56:33.552Z,13.53
2018-11-10T18:59:07.320Z,14.23
2018-11-10T19:01:41.268Z,13.20
2018-11-10T19:04:15.029Z,13.13
2018-11-10T19:06:48.796Z,12.85
2018-11-10T19:09:22.995Z,12.85
2018-11-10T19:11:56.593Z,13.93
2018-11-10T19:14:30.276Z,12.68
2018-11-10T19:17:03.888Z,11.83
2018-11-10T19:22:10.376Z,12.18
2018-11-10T19:24:44.052Z,12.00
2018-11-10T19:27:17.494Z,12.40
2018-11-10T19:29:50.554Z,12.10
2018-11-10T19:32:23.747Z,12.40
2018-11-10T19:34:56.796Z,11.43
2018-11-10T19:37:34.428Z,11.93
2018-11-10T19:40:09.272Z,11.23
2018-11-10T19:42:44.549Z,12.28
2018-11-10T19:45:18.310Z,11.35
2018-11-10T19:47:51.825Z,10.50
2018-11-10T19:50:25.195Z,11.20
2018-11-10T19:52:58.101Z,10.93
2018-11-10T19:55:32.278Z,11.00
2018-11-10T19:58:05.826Z,10.98
2018-11-10T20:00:39.741Z,10.20
2018-11-10T20:03:13.642Z,11.20
2018-11-10T20:05:47.596Z,15.75
2018-11-10T20:08:21.370Z,27.37
2018-11-10T20:10:55.055Z,23.73
2018-11-10T20:13:29.427Z,22.77
2018-11-10T20:16:02.808Z,23.35
2018-11-10T20:18:35.638Z,21.77
2018-11-10T20:21:08.426Z,22.00
2018-11-10T20:23:42.518Z,20.82
2018-11-10T20:26:16.485Z,21.80
2018-11-10T20:28:50.279Z,22.27
2018-11-10T20:31:23.814Z,21.17
2018-11-10T20:33:57.897Z,21.85
2018-11-10T20:39:03.863Z,20.85
2018-11-10T20:41:37.549Z,21.33
2018-11-10T20:44:11.625Z,20.02
2018-11-10T20:46:45.370Z,10.75
2018-11-10T20:49:19.288Z,10.48
2018-11-10T20:54:35.861Z,13.20
2018-11-10T20:59:41.978Z,14.15
2018-11-10T21:02:15.347Z,13.70
2018-11-10T21:04:48.514Z,13.48
2018-11-10T21:07:21.672Z,13.60
2018-11-10T21:09:54.721Z,13.90
2018-11-10T21:12:27.737Z,13.25
2018-11-10T21:15:01.459Z,13.78
2018-11-10T21:17:34.508Z,13.40
2018-11-10T21:20:08.402Z,12.90
2018-11-10T21:22:41.538Z,13.30
2018-11-10T21:25:17.544Z,12.65
2018-11-10T21:27:50.886Z,13.28
2018-11-10T21:32:56.573Z,12.60
2018-11-10T21:35:30.398Z,12.90
2018-11-10T21:38:03.490Z,14.07
2018-11-10T21:40:36.500Z,12.78
2018-11-10T21:43:10.279Z,12.18
2018-11-10T21:45:44.485Z,12.82
2018-11-10T21:48:17.585Z,12.25
2018-11-10T21:50:50.665Z,12.63
2018-11-10T21:53:23.790Z,12.10
2018-11-10T21:55:57.769Z,12.10
2018-11-10T21:58:31.521Z,12.55
2018-11-10T22:01:05.059Z,12.07
2018-11-10T22:03:39.059Z,12.40
2018-11-10T22:06:12.787Z,11.45
2018-11-10T22:08:46.558Z,12.43
2018-11-10T22:11:20.312Z,12.07
2018-11-10T22:13:53.747Z,12.30
2018-11-10T22:16:27.361Z,11.25
2018-11-10T22:19:00.741Z,12.20
2018-11-10T22:21:34.586Z,11.35
2018-11-10T22:24:08.374Z,11.40
2018-11-10T22:26:42.645Z,11.68
2018-11-10T22:29:16.380Z,11.20
2018-11-10T22:31:50.056Z,11.38
2018-11-10T22:34:23.603Z,11.83
2018-11-10T22:36:57.309Z,11.08
2018-11-10T22:39:31.289Z,11.53
2018-11-10T22:42:04.812Z,11.12
2018-11-10T22:44:38.589Z,11.30
2018-11-10T22:47:12.374Z,11.08
2018-11-10T22:49:46.262Z,11.08
2018-11-10T22:52:19.714Z,11.05
2018-11-10T22:54:53.508Z,11.20
2018-11-10T22:57:27.292Z,10.82
2018-11-10T23:00:01.532Z,10.55
2018-11-10T23:02:35.322Z,11.00
2018-11-10T23:05:09.793Z,10.60
2018-11-10T23:07:43.618Z,10.58
2018-11-10T23:10:17.701Z,11.00
2018-11-10T23:12:52.588Z,11.25
2018-11-10T23:15:26.283Z,10.25
2018-11-10T23:17:59.758Z,11.05
2018-11-10T23:20:33.794Z,9.83
2018-11-10T23:23:07.792Z,10.10
2018-11-10T23:25:41.585Z,10.68
2018-11-10T23:28:15.325Z,10.63
2018-11-10T23:30:48.816Z,10.10
2018-11-10T23:33:22.601Z,9.93
2018-11-10T23:35:57.279Z,10.15
2018-11-10T23:38:30.792Z,10.58
2018-11-10T23:41:04.626Z,9.85
2018-11-10T23:43:38.296Z,10.00
2018-11-10T23:46:12.053Z,10.28
2018-11-10T23:48:46.879Z,10.00
2018-11-10T23:53:54.399Z,9.93
2018-11-10T23:56:28.271Z,10.23
2018-11-10T23:59:01.987Z,9.95
